Time;durP1;ratioP1;P1;durP2;ratioP2;P2;SDS_P1;SDS_P2;PMS_P1;PMS_P2;Temp;Humidity;BMP_temperature;BMP_pressure;BME280_temperature;BME280_humidity;BME280_pressure;Samples;Min_cycle;Max_cycle;Signal;HPM_P1;HPM_P2
2023/03/09 00:01:53;;;;;;;14.18;9.45;;;0.90;86.70;;;;;;5055100;28;20118;-44
2023/03/09 00:04:21;;;;;;;13.25;9.48;;;0.90;86.70;;;;;;5036304;28;20041;-45
2023/03/09 00:06:47;;;;;;;14.65;8.93;;;0.90;87.00;;;;;;5017579;28;20029;-44
2023/03/09 00:09:14;;;;;;;13.45;8.63;;;0.80;86.90;;;;;;5034351;28;20053;-48
2023/03/09 00:11:48;;;;;;;11.70;8.15;;;0.90;87.00;;;;;;5033779;28;20172;-44
2023/03/09 00:14:21;;;;;;;11.98;7.65;;;0.90;86.90;;;;;;5033751;28;20033;-42
2023/03/09 00:16:48;;;;;;;13.13;8.60;;;0.90;87.00;;;;;;5033904;28;20484;-42
2023/03/09 00:19:26;;;;;;;14.25;9.13;;;0.90;87.10;;;;;;5033385;28;20097;-42
2023/03/09 00:22:04;;;;;;;15.18;8.73;;;0.90;87.20;;;;;;5051903;28;20025;-47
2023/03/09 00:24:31;;;;;;;14.68;7.97;;;0.90;87.10;;;;;;5052879;28;20028;-45
2023/03/09 00:27:04;;;;;;;12.40;7.97;;;0.90;87.10;;;;;;5054271;28;20057;-44
2023/03/09 00:29:31;;;;;;;13.35;8.38;;;0.90;87.00;;;;;;5035985;28;20128;-48
2023/03/09 00:31:58;;;;;;;13.25;7.97;;;0.90;87.00;;;;;;5033458;28;20029;-45
2023/03/09 00:34:26;;;;;;;10.80;7.60;;;0.90;87.10;;;;;;5034419;28;20022;-46
2023/03/09 00:36:55;;;;;;;13.05;8.07;;;0.90;87.00;;;;;;5034524;28;20108;-43
2023/03/09 00:39:21;;;;;;;15.50;9.13;;;0.90;87.10;;;;;;5034131;28;20041;-48
2023/03/09 00:41:52;;;;;;;12.20;8.45;;;0.80;87.10;;;;;;5034234;28;20489;-47
2023/03/09 00:44:19;;;;;;;15.07;9.38;;;0.90;87.30;;;;;;5016682;28;20033;-43
2023/03/09 00:46:46;;;;;;;13.07;9.07;;;0.90;87.30;;;;;;5049731;28;20441;-47
2023/03/09 00:49:15;;;;;;;14.57;9.52;;;0.90;87.30;;;;;;5053902;28;20072;-43
2023/03/09 00:51:43;;;;;;;16.50;9.85;;;0.90;87.50;;;;;;5033800;28;20608;-47
2023/03/09 00:54:16;;;;;;;14.02;9.65;;;0.90;87.40;;;;;;5042842;28;20044;-43
2023/03/09 00:56:42;;;;;;;14.70;9.63;;;1.00;87.30;;;;;;5053356;28;20036;-47
2023/03/09 00:59:10;;;;;;;16.42;10.63;;;1.00;87.30;;;;;;5042376;28;20026;-43
2023/03/09 01:01:37;;;;;;;20.67;10.35;;;1.00;87.20;;;;;;5033950;28;20037;-43
2023/03/09 01:04:04;;;;;;;15.82;10.30;;;1.00;87.10;;;;;;5049558;28;20030;-42
2023/03/09 01:06:30;;;;;;;17.60;10.05;;;1.00;87.10;;;;;;5032548;28;20041;-43
2023/03/09 01:08:57;;;;;;;16.02;9.32;;;1.00;87.00;;;;;;5033446;28;20053;-43
2023/03/09 01:11:27;;;;;;;16.45;10.88;;;1.00;87.00;;;;;;5033810;28;20124;-43
2023/03/09 01:13:53;;;;;;;15.55;9.73;;;1.00;86.90;;;;;;5032826;28;20526;-44
2023/03/09 01:16:20;;;;;;;11.82;8.57;;;1.00;86.90;;;;;;5032552;28;20462;-45
2023/03/09 01:18:48;;;;;;;13.25;8.98;;;1.00;86.90;;;;;;5033627;28;20045;-44
2023/03/09 01:21:16;;;;;;;15.40;10.13;;;1.00;86.80;;;;;;5033531;28;20025;-44
2023/03/09 01:23:41;;;;;;;13.13;8.25;;;1.00;86.80;;;;;;5043915;28;20040;-43
2023/03/09 01:26:09;;;;;;;13.48;9.32;;;1.00;87.00;;;;;;5053507;28;20028;-43
2023/03/09 01:28:37;;;;;;;12.98;8.55;;;1.00;87.10;;;;;;5053308;28;20037;-43
2023/03/09 01:31:15;;;;;;;18.92;10.40;;;1.00;87.10;;;;;;5044825;28;20029;-44
2023/03/09 01:33:44;;;;;;;15.27;10.13;;;1.10;87.10;;;;;;5032418;28;20038;-42
2023/03/09 01:36:15;;;;;;;14.13;8.95;;;1.00;87.00;;;;;;5032690;28;20021;-44
2023/03/09 01:38:44;;;;;;;14.95;9.70;;;1.00;86.80;;;;;;5032385;28;20129;-44
2023/03/09 01:41:20;;;;;;;12.63;9.32;;;1.00;87.00;;;;;;5033173;28;20116;-49
2023/03/09 01:43:53;;;;;;;15.57;10.23;;;1.00;87.00;;;;;;5032531;28;20506;-42
2023/03/09 01:46:22;;;;;;;15.27;8.60;;;1.10;87.00;;;;;;5032512;28;20411;-43
2023/03/09 01:49:28;;;;;;;12.73;8.13;;;1.00;86.80;;;;;;5033206;28;20030;-44
2023/03/09 01:52:19;;;;;;;15.23;9.85;;;1.00;86.90;;;;;;5032707;28;20033;-44
2023/03/09 01:55:07;;;;;;;12.70;8.35;;;1.00;86.90;;;;;;5033558;28;20074;-42
2023/03/09 01:57:48;;;;;;;14.98;8.95;;;1.00;87.10;;;;;;5033003;28;20066;-43
2023/03/09 02:00:20;;;;;;;17.67;9.98;;;1.00;87.10;;;;;;5032112;28;20037;-43
2023/03/09 02:02:52;;;;;;;16.70;9.82;;;1.00;87.10;;;;;;5014797;28;20065;-43
2023/03/09 02:05:32;;;;;;;14.70;9.30;;;1.10;87.00;;;;;;5032496;28;20068;-43
2023/03/09 02:08:02;;;;;;;14.27;9.13;;;1.10;87.10;;;;;;5015719;28;20045;-45
2023/03/09 02:10:35;;;;;;;18.45;9.23;;;1.00;86.90;;;;;;5048259;28;20033;-44
2023/03/09 02:13:07;;;;;;;13.90;8.63;;;1.10;87.00;;;;;;5032135;28;20059;-46
2023/03/09 02:15:34;;;;;;;16.58;9.40;;;1.10;87.00;;;;;;5031571;28;20025;-45
2023/03/09 02:18:00;;;;;;;14.50;9.45;;;1.00;87.00;;;;;;5030711;28;20045;-46
2023/03/09 02:20:53;;;;;;;14.15;9.18;;;1.00;87.10;;;;;;5035136;28;20450;-44
2023/03/09 02:23:30;;;;;;;13.40;8.60;;;1.00;87.10;;;;;;5052697;28;20447;-46
2023/03/09 02:26:30;;;;;;;14.73;9.35;;;1.00;87.20;;;;;;5051868;28;20745;-44
2023/03/09 02:28:57;;;;;;;15.25;8.93;;;1.00;87.10;;;;;;5032297;28;20046;-47
2023/03/09 02:31:24;;;;;;;14.70;9.20;;;1.00;87.20;;;;;;5032625;28;20087;-44
2023/03/09 02:33:50;;;;;;;13.60;8.90;;;1.00;87.20;;;;;;5032780;28;20284;-47
2023/03/09 02:36:17;;;;;;;15.35;10.55;;;1.00;87.50;;;;;;5033109;28;20033;-47
2023/03/09 02:38:43;;;;;;;14.10;8.63;;;1.00;87.60;;;;;;5036629;28;20030;-45
2023/03/09 02:41:12;;;;;;;15.48;9.30;;;1.00;87.50;;;;;;5035658;28;20036;-48
2023/03/09 02:43:50;;;;;;;16.35;9.57;;;1.00;87.40;;;;;;5035298;28;20037;-48
2023/03/09 02:46:18;;;;;;;16.95;10.60;;;1.00;87.60;;;;;;5035571;28;20068;-46
2023/03/09 02:48:47;;;;;;;14.52;9.48;;;1.00;87.60;;;;;;5036870;28;20095;-43
2023/03/09 02:51:16;;;;;;;16.98;10.55;;;1.00;87.60;;;;;;5036644;28;20065;-44
2023/03/09 02:53:43;;;;;;;15.48;10.40;;;1.00;87.60;;;;;;5035969;28;20494;-43
2023/03/09 02:56:10;;;;;;;15.60;11.10;;;1.00;87.60;;;;;;5035664;28;20101;-43
2023/03/09 02:58:38;;;;;;;17.20;10.18;;;1.10;87.80;;;;;;5035553;28;20034;-42
2023/03/09 03:01:05;;;;;;;15.68;11.43;;;1.10;87.70;;;;;;5051357;28;20402;-42
2023/03/09 03:03:31;;;;;;;14.68;10.60;;;1.10;87.70;;;;;;5035018;28;20049;-45
2023/03/09 03:05:59;;;;;;;17.25;12.30;;;1.10;87.80;;;;;;5051904;28;20036;-43
2023/03/09 03:08:26;;;;;;;17.73;10.55;;;1.10;87.80;;;;;;5054778;28;20495;-44
2023/03/09 03:10:54;;;;;;;17.00;11.45;;;1.10;87.90;;;;;;5039688;28;20031;-46
2023/03/09 03:13:21;;;;;;;15.80;10.43;;;1.10;87.80;;;;;;5036112;28;20427;-43
2023/03/09 03:15:49;;;;;;;15.57;11.48;;;1.10;87.80;;;;;;5052922;28;20100;-42
2023/03/09 03:18:17;;;;;;;16.30;10.98;;;1.10;87.80;;;;;;5055394;28;20057;-43
2023/03/09 03:20:44;;;;;;;18.65;12.07;;;1.00;87.90;;;;;;5055422;28;20025;-43
2023/03/09 03:23:10;;;;;;;15.45;11.00;;;1.10;87.90;;;;;;5043243;28;20116;-44
2023/03/09 03:25:38;;;;;;;18.30;11.13;;;1.10;88.00;;;;;;5035790;28;20104;-43
2023/03/09 03:28:05;;;;;;;18.13;11.70;;;1.00;87.80;;;;;;5035449;28;20163;-44
2023/03/09 03:30:32;;;;;;;17.25;11.43;;;1.00;87.90;;;;;;5034915;28;20033;-43
2023/03/09 03:32:57;;;;;;;20.23;10.38;;;1.00;87.90;;;;;;5035558;28;20034;-44
2023/03/09 03:35:24;;;;;;;16.70;10.90;;;1.00;88.00;;;;;;5034872;28;20083;-42
2023/03/09 03:37:52;;;;;;;14.48;9.73;;;1.00;88.00;;;;;;5035738;28;20363;-45
2023/03/09 03:40:22;;;;;;;19.23;10.00;;;1.00;87.90;;;;;;5035737;28;20026;-43
2023/03/09 03:42:49;;;;;;;16.38;11.20;;;1.00;87.90;;;;;;5050558;28;20040;-43
2023/03/09 03:45:20;;;;;;;13.38;9.13;;;1.00;87.90;;;;;;5050975;28;20029;-43
2023/03/09 03:47:48;;;;;;;16.77;10.07;;;1.00;87.90;;;;;;5033903;28;20026;-44
2023/03/09 03:50:16;;;;;;;15.48;10.32;;;1.10;87.90;;;;;;5035496;28;20022;-45
2023/03/09 03:52:42;;;;;;;15.55;10.60;;;1.10;87.90;;;;;;5035243;28;20029;-43
2023/03/09 03:55:09;;;;;;;15.88;10.45;;;1.00;88.00;;;;;;5035159;28;20018;-44
2023/03/09 03:57:36;;;;;;;15.15;11.05;;;1.10;88.00;;;;;;5033826;28;20072;-43
2023/03/09 04:00:09;;;;;;;17.02;10.65;;;1.10;87.90;;;;;;5035123;28;20029;-44
2023/03/09 04:02:35;;;;;;;15.52;9.68;;;1.10;87.80;;;;;;5034164;28;20022;-43
2023/03/09 04:05:07;;;;;;;15.95;10.50;;;1.10;87.70;;;;;;5034699;28;20033;-48
2023/03/09 04:07:34;;;;;;;15.73;10.20;;;1.10;87.70;;;;;;5034382;28;20104;-43
2023/03/09 04:10:01;;;;;;;16.40;10.15;;;1.00;87.70;;;;;;5035154;28;20025;-45
2023/03/09 04:12:27;;;;;;;14.88;10.90;;;1.00;87.80;;;;;;5034900;28;20018;-43
2023/03/09 04:14:55;;;;;;;16.13;10.20;;;1.00;87.80;;;;;;5034599;28;20555;-43
2023/03/09 04:17:22;;;;;;;14.30;10.20;;;1.10;87.70;;;;;;5050107;28;20045;-43
2023/03/09 04:19:49;;;;;;;16.50;10.32;;;1.00;87.80;;;;;;5037338;28;20468;-46
2023/03/09 04:22:15;;;;;;;17.17;11.55;;;1.00;87.80;;;;;;5053385;28;20063;-45
2023/03/09 04:24:42;;;;;;;16.05;9.25;;;1.00;87.70;;;;;;5054405;28;20032;-45
2023/03/09 04:27:13;;;;;;;14.32;8.80;;;1.00;87.90;;;;;;5053969;28;20447;-43
2023/03/09 04:29:45;;;;;;;13.93;9.65;;;1.00;87.90;;;;;;5034704;28;20049;-47
2023/03/09 04:32:12;;;;;;;16.90;10.13;;;1.00;87.90;;;;;;5032973;28;20091;-45
2023/03/09 04:34:39;;;;;;;18.15;11.48;;;1.00;88.10;;;;;;5034512;28;20018;-47
2023/03/09 04:37:07;;;;;;;21.58;13.20;;;0.90;88.00;;;;;;5033077;28;20607;-45
2023/03/09 04:39:35;;;;;;;15.68;10.50;;;0.90;88.10;;;;;;5033232;28;20021;-46
2023/03/09 04:42:04;;;;;;;17.70;9.43;;;1.00;88.30;;;;;;5033381;28;20032;-48
2023/03/09 04:44:34;;;;;;;19.25;10.80;;;0.90;88.10;;;;;;5034253;28;20452;-47
2023/03/09 04:47:06;;;;;;;17.45;10.13;;;0.90;88.20;;;;;;5054024;28;20036;-45
2023/03/09 04:49:34;;;;;;;18.50;10.98;;;0.90;88.30;;;;;;5053878;28;20039;-43
2023/03/09 04:52:04;;;;;;;16.38;10.82;;;0.90;88.40;;;;;;5034114;28;20404;-44
2023/03/09 04:54:31;;;;;;;16.50;10.70;;;0.90;88.40;;;;;;5033999;28;20056;-45
2023/03/09 04:56:57;;;;;;;18.38;11.13;;;0.90;88.40;;;;;;5034087;28;20079;-44
2023/03/09 04:59:24;;;;;;;17.52;10.15;;;0.90;88.50;;;;;;5032628;28;20503;-43
2023/03/09 05:01:50;;;;;;;16.10;11.48;;;0.90;88.40;;;;;;5033453;28;20086;-43
2023/03/09 05:04:18;;;;;;;15.32;10.43;;;0.90;88.50;;;;;;5034038;28;20033;-43
2023/03/09 05:06:46;;;;;;;16.17;11.20;;;0.90;88.60;;;;;;5033709;28;20065;-44
2023/03/09 05:09:14;;;;;;;14.50;10.38;;;0.90;88.60;;;;;;5033488;28;20045;-43
2023/03/09 05:11:39;;;;;;;19.00;11.77;;;0.90;88.60;;;;;;5032745;28;20033;-44
2023/03/09 05:14:05;;;;;;;16.23;10.80;;;0.90;88.60;;;;;;5033391;28;20036;-44
2023/03/09 05:16:32;;;;;;;18.75;11.07;;;0.90;88.70;;;;;;5033892;28;20029;-42
2023/03/09 05:18:59;;;;;;;16.70;11.88;;;0.90;88.60;;;;;;5033696;28;20112;-44
2023/03/09 05:21:27;;;;;;;17.15;11.98;;;0.90;88.70;;;;;;5032424;28;20350;-43
2023/03/09 05:23:55;;;;;;;19.55;11.77;;;0.90;88.70;;;;;;5032355;28;20033;-42
2023/03/09 05:26:20;;;;;;;16.13;11.20;;;1.00;88.60;;;;;;5031770;28;20041;-43
2023/03/09 05:28:52;;;;;;;16.60;11.43;;;0.90;88.50;;;;;;5032949;28;20033;-44
2023/03/09 05:31:17;;;;;;;16.10;10.52;;;0.90;88.50;;;;;;5041578;28;20094;-43
2023/03/09 05:33:48;;;;;;;20.35;12.10;;;0.80;88.50;;;;;;5052629;28;20024;-44
2023/03/09 05:36:25;;;;;;;17.40;10.88;;;0.80;88.50;;;;;;5052973;28;20093;-44
2023/03/09 05:38:52;;;;;;;15.75;10.82;;;0.80;88.80;;;;;;5038150;28;20072;-44
2023/03/09 05:41:20;;;;;;;19.85;10.90;;;0.80;88.80;;;;;;5014969;28;20045;-44
2023/03/09 05:43:47;;;;;;;15.82;10.40;;;0.70;88.70;;;;;;5050838;28;20119;-43
2023/03/09 05:46:15;;;;;;;19.55;12.13;;;0.80;89.00;;;;;;5050821;28;20025;-44
2023/03/09 05:48:42;;;;;;;20.85;11.63;;;0.80;89.00;;;;;;5035290;28;20055;-43
2023/03/09 05:51:11;;;;;;;18.25;11.77;;;0.80;89.10;;;;;;5053208;28;20017;-43
2023/03/09 05:53:37;;;;;;;14.75;10.45;;;0.80;89.20;;;;;;5034955;28;20033;-48
2023/03/09 05:56:06;;;;;;;16.20;10.63;;;0.90;89.30;;;;;;5032446;28;20083;-44
2023/03/09 05:58:36;;;;;;;18.05;11.75;;;0.90;89.30;;;;;;5032260;28;20112;-46
2023/03/09 06:01:03;;;;;;;;;;;0.90;89.30;;;;;;5033294;28;20045;-44
2023/03/09 06:03:30;;;;;;;20.40;12.60;;;0.90;89.20;;;;;;5047928;28;20311;-44
2023/03/09 06:06:01;;;;;;;15.88;10.57;;;0.90;89.20;;;;;;5031862;28;20046;-45
2023/03/09 06:08:29;;;;;;;19.05;11.38;;;0.90;89.20;;;;;;5049744;28;20153;-43
2023/03/09 06:11:00;;;;;;;18.35;11.27;;;0.90;89.10;;;;;;5056537;28;20029;-43
2023/03/09 06:13:26;;;;;;;16.30;11.05;;;0.90;89.00;;;;;;5041976;28;20067;-50
2023/03/09 06:15:56;;;;;;;16.00;11.02;;;0.90;89.20;;;;;;5033437;28;20439;-49
2023/03/09 06:18:26;;;;;;;16.70;11.07;;;0.90;89.10;;;;;;5038223;28;20131;-46
2023/03/09 06:20:53;;;;;;;;;;;0.90;89.30;;;;;;5040226;28;20702;-45
2023/03/09 06:23:18;;;;;;;16.55;10.95;;;0.90;89.30;;;;;;5039220;28;19909;-44
2023/03/09 06:25:47;;;;;;;16.88;10.88;;;0.90;89.20;;;;;;5039353;28;20032;-42
2023/03/09 06:28:14;;;;;;;16.63;11.32;;;0.90;89.20;;;;;;5039034;28;20112;-44
2023/03/09 06:30:42;;;;;;;16.02;10.93;;;0.90;89.10;;;;;;5054757;28;20026;-45
2023/03/09 06:33:09;;;;;;;20.88;11.98;;;1.00;89.10;;;;;;5039490;28;20025;-47
2023/03/09 06:35:36;;;;;;;16.73;10.98;;;1.00;89.10;;;;;;5042539;28;20584;-47
2023/03/09 06:38:05;;;;;;;18.85;12.07;;;1.00;89.00;;;;;;5059246;28;20040;-43
2023/03/09 06:40:32;;;;;;;17.42;11.25;;;1.10;89.10;;;;;;5059333;28;20044;-43
2023/03/09 06:42:59;;;;;;;16.20;10.38;;;1.10;88.90;;;;;;5058368;28;20032;-48
2023/03/09 06:45:26;;;;;;;16.25;10.98;;;1.10;88.90;;;;;;5054222;28;20110;-42
2023/03/09 06:47:57;;;;;;;14.93;10.70;;;1.20;88.90;;;;;;5039037;28;20041;-45
2023/03/09 06:50:25;;;;;;;17.33;11.75;;;1.20;88.90;;;;;;5055115;28;20034;-44
2023/03/09 06:52:54;;;;;;;19.02;11.20;;;1.30;89.00;;;;;;5039138;28;20039;-43
2023/03/09 06:55:30;;;;;;;16.00;11.48;;;1.30;88.80;;;;;;5037741;28;20151;-43
2023/03/09 06:57:56;;;;;;;17.40;10.60;;;1.40;88.90;;;;;;5037658;28;20033;-42
2023/03/09 07:00:24;;;;;;;16.00;10.32;;;1.50;88.70;;;;;;5038480;28;20041;-42
2023/03/09 07:02:50;;;;;;;16.10;10.90;;;1.50;88.50;;;;;;5039081;28;20041;-43
2023/03/09 07:05:17;;;;;;;13.38;9.15;;;1.60;88.40;;;;;;5038925;28;20021;-42
2023/03/09 07:07:48;;;;;;;15.27;9.90;;;1.70;88.40;;;;;;5038117;28;20051;-41
2023/03/09 07:10:16;;;;;;;17.48;12.13;;;1.70;88.10;;;;;;5019249;28;20046;-42
2023/03/09 07:12:58;;;;;;;16.10;11.82;;;1.70;87.90;;;;;;5019261;28;20145;-41
2023/03/09 07:15:24;;;;;;;15.80;11.25;;;1.80;87.80;;;;;;5018881;28;20017;-44
2023/03/09 07:17:51;;;;;;;17.75;12.10;;;1.70;87.10;;;;;;5019557;28;20061;-41
2023/03/09 07:20:17;;;;;;;15.40;10.35;;;1.80;87.20;;;;;;5019678;28;20138;-41
2023/03/09 07:22:43;;;;;;;16.95;10.95;;;1.70;86.70;;;;;;5015884;28;20062;-42
2023/03/09 07:25:11;;;;;;;14.60;9.38;;;1.60;86.40;;;;;;5015705;28;20030;-42
2023/03/09 07:27:37;;;;;;;14.18;10.23;;;1.70;86.80;;;;;;5015809;28;20386;-43
2023/03/09 07:30:03;;;;;;;15.10;9.68;;;1.80;86.80;;;;;;5031334;28;20105;-41
2023/03/09 07:32:30;;;;;;;18.20;11.52;;;1.80;86.40;;;;;;5015085;28;20679;-42
2023/03/09 07:34:59;;;;;;;14.15;10.13;;;1.90;86.40;;;;;;5032106;28;20032;-41
2023/03/09 07:37:29;;;;;;;14.40;9.57;;;2.00;86.30;;;;;;5034413;28;20056;-41
2023/03/09 07:39:56;;;;;;;13.57;9.43;;;2.00;86.00;;;;;;5020953;28;20061;-42
2023/03/09 07:42:22;;;;;;;13.70;10.05;;;2.10;85.60;;;;;;5014825;28;20030;-42
2023/03/09 07:44:50;;;;;;;13.45;8.93;;;2.00;85.30;;;;;;5015925;28;20026;-41
2023/03/09 07:47:18;;;;;;;13.95;10.45;;;2.10;85.40;;;;;;5014444;28;20037;-41
2023/03/09 07:49:46;;;;;;;16.17;11.10;;;2.00;85.30;;;;;;5015412;28;20414;-41
2023/03/09 07:52:13;;;;;;;14.25;10.07;;;2.20;85.40;;;;;;5015459;28;20026;-46
2023/03/09 07:54:40;;;;;;;15.55;10.77;;;2.20;85.20;;;;;;5033113;28;20044;-41
2023/03/09 07:57:08;;;;;;;13.65;10.38;;;2.20;84.90;;;;;;5035142;28;20339;-42
2023/03/09 07:59:36;;;;;;;15.85;10.15;;;2.30;85.00;;;;;;5034147;28;20029;-42
2023/03/09 08:02:06;;;;;;;13.18;10.15;;;2.30;84.60;;;;;;5015218;28;20064;-43
2023/03/09 08:04:33;;;;;;;13.55;9.32;;;2.40;85.00;;;;;;5015369;28;20100;-42
2023/03/09 08:07:03;;;;;;;16.00;9.68;;;2.50;84.90;;;;;;5015151;28;20025;-45
2023/03/09 08:09:31;;;;;;;13.82;9.48;;;2.60;84.00;;;;;;5028696;28;20045;-42
2023/03/09 08:11:57;;;;;;;14.02;9.65;;;2.70;84.00;;;;;;5034476;28;20371;-44
2023/03/09 08:14:26;;;;;;;17.13;10.07;;;2.80;83.80;;;;;;5034511;28;20021;-41
2023/03/09 08:16:51;;;;;;;13.27;9.82;;;3.00;83.30;;;;;;5049648;28;20465;-42
2023/03/09 08:19:20;;;;;;;10.68;8.38;;;3.30;83.40;;;;;;5056174;28;20033;-42
2023/03/09 08:21:46;;;;;;;14.80;10.27;;;3.60;82.90;;;;;;5054719;28;20190;-47
2023/03/09 08:24:13;;;;;;;13.02;9.70;;;3.80;79.80;;;;;;5051954;28;20067;-45
2023/03/09 08:26:42;;;;;;;12.38;9.00;;;4.00;80.30;;;;;;5033751;28;20128;-45
2023/03/09 08:29:09;;;;;;;12.97;9.73;;;4.40;79.40;;;;;;5034587;28;20037;-42
2023/03/09 08:31:35;;;;;;;13.43;9.05;;;4.50;77.60;;;;;;5034373;28;20322;-45
2023/03/09 08:34:03;;;;;;;12.02;8.73;;;4.70;76.40;;;;;;5033378;28;20064;-42
2023/03/09 08:36:31;;;;;;;17.52;9.35;;;4.90;77.00;;;;;;5033535;28;20025;-44
2023/03/09 08:38:57;;;;;;;10.70;9.00;;;5.10;75.20;;;;;;5034591;28;20087;-45
2023/03/09 08:41:26;;;;;;;23.55;16.70;;;5.40;75.20;;;;;;5034223;28;20033;-45
2023/03/09 08:43:56;;;;;;;21.40;11.63;;;5.60;75.10;;;;;;5039953;28;20036;-42
2023/03/09 08:46:23;;;;;;;18.25;13.45;;;5.60;73.70;;;;;;5054170;28;20381;-43
2023/03/09 08:48:50;;;;;;;13.60;9.45;;;5.90;74.00;;;;;;5038607;28;20124;-44
2023/03/09 08:51:18;;;;;;;13.82;10.20;;;5.90;72.30;;;;;;5034042;28;20104;-43
2023/03/09 08:53:45;;;;;;;12.43;10.18;;;6.00;71.10;;;;;;5049847;28;20482;-43
2023/03/09 08:56:12;;;;;;;13.18;9.98;;;6.00;70.60;;;;;;5033107;28;20048;-43
2023/03/09 08:58:39;;;;;;;14.45;9.50;;;5.70;70.80;;;;;;5032422;28;20057;-43
2023/03/09 09:01:08;;;;;;;11.55;8.60;;;5.70;72.10;;;;;;5060134;28;20033;-42
2023/03/09 09:03:44;;;;;;;12.55;8.85;;;5.20;71.30;;;;;;5051114;28;20028;-42
2023/03/09 09:06:15;;;;;;;10.45;8.57;;;5.20;74.00;;;;;;5033063;28;20034;-42
2023/03/09 09:08:42;;;;;;;11.88;9.73;;;5.40;74.50;;;;;;5049173;28;20409;-44
2023/03/09 09:11:14;;;;;;;12.00;9.80;;;5.50;73.80;;;;;;5033797;28;20025;-42
2023/03/09 09:13:43;;;;;;;12.43;9.60;;;5.50;72.40;;;;;;5049125;28;20184;-47
2023/03/09 09:16:15;;;;;;;12.10;8.93;;;5.80;71.20;;;;;;5034006;28;20032;-43
2023/03/09 09:18:42;;;;;;;12.02;9.50;;;5.50;71.70;;;;;;5016648;28;20154;-43
2023/03/09 09:21:12;;;;;;;11.80;8.32;;;5.40;70.90;;;;;;5033442;28;20029;-43
2023/03/09 09:23:44;;;;;;;10.85;8.73;;;5.50;72.40;;;;;;5032845;28;20107;-42
2023/03/09 09:26:11;;;;;;;9.95;8.38;;;5.70;71.90;;;;;;5016769;28;20052;-42
2023/03/09 09:28:41;;;;;;;10.65;8.73;;;5.80;71.30;;;;;;5048477;28;20034;-43
2023/03/09 09:31:07;;;;;;;;;;;5.80;70.90;;;;;;5048992;28;20519;-42
2023/03/09 09:33:35;;;;;;;12.38;9.02;;;5.70;70.70;;;;;;5033048;28;19984;-43
2023/03/09 09:36:15;;;;;;;11.50;8.43;;;5.40;71.50;;;;;;5049117;28;20411;-42
2023/03/09 09:38:42;;;;;;;11.68;8.60;;;5.50;71.60;;;;;;5033067;28;20503;-43
2023/03/09 09:41:36;;;;;;;12.73;9.63;;;5.40;71.90;;;;;;5033416;28;20029;-43
2023/03/09 09:44:14;;;;;;;11.75;8.93;;;5.20;72.20;;;;;;5033191;28;20078;-43
2023/03/09 09:46:42;;;;;;;9.05;7.60;;;5.50;72.60;;;;;;5031998;28;20041;-42
2023/03/09 09:49:16;;;;;;;11.20;9.23;;;5.60;71.20;;;;;;5031725;28;20029;-43
2023/03/09 09:52:04;;;;;;;9.38;7.43;;;5.60;71.60;;;;;;5016324;28;20130;-44
2023/03/09 09:55:00;;;;;;;10.63;7.05;;;5.60;71.80;;;;;;5032134;28;20044;-44
2023/03/09 09:57:45;;;;;;;9.18;7.03;;;5.50;70.80;;;;;;5033070;28;20313;-44
2023/03/09 10:00:17;;;;;;;9.40;7.45;;;5.70;71.50;;;;;;5031996;28;20463;-45
2023/03/09 10:03:11;;;;;;;9.88;6.15;;;5.60;71.20;;;;;;5033137;28;20033;-43
2023/03/09 10:06:01;;;;;;;8.05;6.03;;;5.70;71.70;;;;;;5009734;28;20459;-42
2023/03/09 10:08:55;;;;;;;13.18;7.15;;;5.70;70.90;;;;;;5031616;28;20707;-42
2023/03/09 10:11:38;;;;;;;9.57;6.75;;;5.90;70.50;;;;;;5022989;28;20041;-43
2023/03/09 10:14:15;;;;;;;6.72;5.70;;;6.00;70.80;;;;;;5016161;28;20439;-43
2023/03/09 10:16:53;;;;;;;8.35;6.15;;;6.30;69.20;;;;;;5032935;28;20063;-44
2023/03/09 10:19:27;;;;;;;10.48;5.97;;;6.30;68.30;;;;;;5032272;28;20039;-44
2023/03/09 10:22:24;;;;;;;6.28;4.95;;;6.30;68.30;;;;;;5047895;28;20077;-42
2023/03/09 10:24:55;;;;;;;9.30;5.80;;;6.40;68.40;;;;;;5031534;28;20041;-44
2023/03/09 10:27:56;;;;;;;8.68;5.38;;;6.50;66.70;;;;;;5031848;28;20029;-45
2023/03/09 10:30:31;;;;;;;6.93;4.78;;;6.20;67.10;;;;;;5031773;28;20104;-45
2023/03/09 10:33:33;;;;;;;6.50;4.32;;;6.40;66.20;;;;;;5032881;28;20032;-42
2023/03/09 10:36:12;;;;;;;7.47;4.35;;;6.30;65.10;;;;;;5031772;28;20021;-42
2023/03/09 10:38:40;;;;;;;6.57;4.50;;;6.10;64.70;;;;;;5032656;28;20026;-44
2023/03/09 10:41:18;;;;;;;6.47;4.90;;;6.30;66.50;;;;;;5032812;28;20083;-45
2023/03/09 10:43:45;;;;;;;5.85;4.25;;;6.00;65.30;;;;;;5015195;28;20057;-43
2023/03/09 10:46:30;;;;;;;7.82;3.70;;;5.90;65.60;;;;;;5032795;28;20040;-44
2023/03/09 10:49:17;;;;;;;5.45;3.25;;;5.40;65.70;;;;;;5032289;28;20021;-43
2023/03/09 10:51:54;;;;;;;211.70;128.30;;;5.50;65.80;;;;;;5032432;28;20057;-42
2023/03/09 10:54:29;;;;;;;54.70;31.50;;;5.30;65.60;;;;;;5031651;28;20025;-42
2023/03/09 10:56:57;;;;;;;10.68;6.40;;;5.20;66.40;;;;;;5032364;28;20025;-43
2023/03/09 10:59:28;;;;;;;6.28;4.53;;;5.10;66.10;;;;;;5036078;28;20041;-42
2023/03/09 11:02:20;;;;;;;8.80;5.07;;;5.20;66.60;;;;;;5035143;28;20344;-44
2023/03/09 11:04:47;;;;;;;7.05;4.50;;;5.20;67.00;;;;;;5036355;28;20037;-42
2023/03/09 11:07:25;;;;;;;10.20;6.05;;;4.90;68.10;;;;;;5035088;28;20124;-42
2023/03/09 11:09:56;;;;;;;7.38;5.00;;;4.70;69.00;;;;;;5034808;28;20061;-43
2023/03/09 11:12:36;;;;;;;7.50;5.00;;;4.90;70.60;;;;;;5036271;28;20025;-42
2023/03/09 11:15:31;;;;;;;8.10;5.38;;;5.00;69.60;;;;;;5035831;28;20044;-43
2023/03/09 11:18:00;;;;;;;8.70;4.90;;;5.10;69.50;;;;;;5034884;28;20040;-43
2023/03/09 11:20:36;;;;;;;7.93;5.22;;;5.30;69.50;;;;;;5018373;28;20037;-43
2023/03/09 11:23:26;;;;;;;7.82;6.20;;;5.20;68.90;;;;;;5035871;28;20025;-43
2023/03/09 11:26:23;;;;;;;8.57;5.72;;;5.00;69.80;;;;;;5035717;28;20025;-42
2023/03/09 11:29:01;;;;;;;8.85;5.82;;;5.20;70.10;;;;;;5035904;28;20029;-43
2023/03/09 11:31:39;;;;;;;10.43;6.00;;;5.40;69.40;;;;;;5035817;28;20104;-43
2023/03/09 11:34:14;;;;;;;8.63;6.13;;;5.40;68.80;;;;;;5034872;28;20332;-44
2023/03/09 11:37:18;;;;;;;8.10;5.75;;;5.50;69.30;;;;;;5035594;28;20041;-44
2023/03/09 11:40:15;;;;;;;8.98;5.65;;;5.80;69.00;;;;;;5017160;28;20041;-47
2023/03/09 11:43:12;;;;;;;7.43;6.13;;;5.80;68.70;;;;;;5035505;28;20112;-43
2023/03/09 11:45:42;;;;;;;8.65;6.63;;;5.60;67.60;;;;;;5035493;28;20451;-45
2023/03/09 11:48:28;;;;;;;9.25;6.32;;;5.40;68.00;;;;;;5034501;28;20038;-44
2023/03/09 11:51:03;;;;;;;7.97;6.40;;;5.40;68.80;;;;;;5035158;28;20120;-43
2023/03/09 11:54:06;;;;;;;8.98;6.80;;;5.40;68.70;;;;;;5035613;28;20370;-42
2023/03/09 11:56:41;;;;;;;10.57;7.15;;;5.50;69.80;;;;;;5035347;28;20083;-43
2023/03/09 11:59:46;;;;;;;8.10;5.90;;;5.60;70.40;;;;;;5024080;28;20048;-44
2023/03/09 12:02:31;;;;;;;22.00;16.92;;;5.70;69.70;;;;;;5046137;28;20064;-45
2023/03/09 12:05:01;;;;;;;18.05;14.23;;;5.70;69.20;;;;;;5053961;28;20043;-42
2023/03/09 12:07:42;;;;;;;12.85;10.25;;;5.80;69.10;;;;;;5054153;28;20029;-43
2023/03/09 12:10:29;;;;;;;11.02;7.05;;;5.70;69.40;;;;;;5047073;28;20134;-45
2023/03/09 12:13:23;;;;;;;13.45;7.22;;;5.70;69.50;;;;;;5054876;28;20404;-43
2023/03/09 12:16:36;;;;;;;11.40;9.13;;;5.50;69.50;;;;;;5052980;28;20051;-42
2023/03/09 12:19:14;;;;;;;10.07;8.05;;;5.30;70.40;;;;;;5053432;28;20038;-44
2023/03/09 12:21:46;;;;;;;10.55;8.30;;;5.10;70.20;;;;;;5054619;28;20031;-43
2023/03/09 12:24:33;;;;;;;11.68;7.88;;;5.30;71.40;;;;;;5025113;28;20527;-42
2023/03/09 12:27:06;;;;;;;10.57;7.72;;;5.30;71.50;;;;;;5034696;28;20033;-44
2023/03/09 12:29:46;;;;;;;10.40;7.78;;;5.40;70.80;;;;;;5033385;28;20056;-43
2023/03/09 12:32:36;;;;;;;9.40;8.43;;;5.40;70.80;;;;;;5034951;28;20119;-43
2023/03/09 12:35:09;;;;;;;10.00;8.68;;;5.60;70.50;;;;;;5034590;28;20395;-47
2023/03/09 12:37:54;;;;;;;10.80;7.65;;;5.60;70.30;;;;;;5017007;28;20038;-42
2023/03/09 12:40:32;;;;;;;13.07;8.43;;;5.50;70.10;;;;;;5034154;28;20378;-47
2023/03/09 12:43:21;;;;;;;11.40;8.13;;;5.40;70.20;;;;;;5033169;28;20591;-45
2023/03/09 12:45:50;;;;;;;12.45;7.50;;;5.50;71.10;;;;;;5034190;28;20037;-44
2023/03/09 12:48:28;;;;;;;10.18;7.97;;;5.60;70.20;;;;;;5033197;28;20037;-43
2023/03/09 12:51:22;;;;;;;11.15;7.95;;;5.50;69.60;;;;;;5033148;28;20466;-43
2023/03/09 12:54:21;;;;;;;11.20;8.55;;;5.50;69.60;;;;;;5033957;28;20032;-42
2023/03/09 12:56:48;;;;;;;10.55;7.90;;;5.30;69.80;;;;;;5048849;28;20553;-42
2023/03/09 12:59:21;;;;;;;11.25;8.30;;;5.10;69.60;;;;;;5033821;28;20340;-44
2023/03/09 13:01:51;;;;;;;8.70;7.10;;;5.20;71.00;;;;;;5032752;28;20168;-43
2023/03/09 13:04:22;;;;;;;11.05;8.00;;;5.00;70.30;;;;;;5033773;28;20064;-43
2023/03/09 13:07:15;;;;;;;10.88;8.73;;;5.20;70.90;;;;;;5033065;28;20029;-43
2023/03/09 13:09:42;;;;;;;10.68;7.63;;;5.20;70.30;;;;;;5032262;28;20371;-47
2023/03/09 13:12:29;;;;;;;11.27;8.48;;;5.20;70.60;;;;;;5033969;28;20040;-44